Time;durP1;ratioP1;P1;durP2;ratioP2;P2;SDS_P1;SDS_P2;PMS_P1;PMS_P2;Temp;Humidity;BMP_temperature;BMP_pressure;BME280_temperature;BME280_humidity;BME280_pressure;Samples;Min_cycle;Max_cycle;Signal;HPM_P1;HPM_P2
2023/06/29 00:00:22;;;;;;;;;44.00;32.75;;;;;25.66;43.93;101163.09;4919492;28;45245;-45
2023/06/29 00:02:48;;;;;;;;;40.50;32.25;;;;;25.66;43.57;101154.25;4918023;28;45367;-49
2023/06/29 00:05:14;;;;;;;;;37.25;31.25;;;;;25.66;43.64;101157.78;4919359;28;45253;-47
2023/06/29 00:07:40;;;;;;;;;40.50;31.50;;;;;25.67;43.71;101163.94;4919287;28;45346;-44
2023/06/29 00:10:07;;;;;;;;;40.50;33.00;;;;;25.66;43.40;101155.13;4919659;28;45432;-47
2023/06/29 00:12:33;;;;;;;;;44.00;33.75;;;;;25.65;43.25;101155.22;4919018;28;46578;-44
2023/06/29 00:14:58;;;;;;;;;45.00;35.75;;;;;25.68;43.11;101168.28;4919020;28;45330;-48
2023/06/29 00:17:23;;;;;;;;;45.00;36.00;;;;;25.67;43.89;101159.47;4918423;28;60510;-48
2023/06/29 00:19:49;;;;;;;;;51.00;38.50;;;;;25.67;43.94;101151.53;4919245;28;45526;-48
2023/06/29 00:22:15;;;;;;;;;44.75;36.50;;;;;25.68;43.36;101152.34;4918822;28;46242;-45
2023/06/29 00:24:43;;;;;;;;;50.00;39.75;;;;;25.67;43.60;101148.88;4918959;28;45250;-47
2023/06/29 00:27:13;;;;;;;;;49.25;37.75;;;;;25.66;43.55;101143.66;4919299;28;45272;-48
2023/06/29 00:29:43;;;;;;;;;50.50;36.00;;;;;25.67;43.39;101145.34;4919456;28;45323;-46
2023/06/29 00:32:09;;;;;;;;;47.25;38.00;;;;;25.67;43.63;101134.72;4918811;28;47569;-44
2023/06/29 00:34:35;;;;;;;;;49.75;37.75;;;;;25.67;43.18;101134.72;4918748;28;45485;-46
2023/06/29 00:37:00;;;;;;;;;47.25;36.00;;;;;25.65;43.64;101139.28;4917871;28;45492;-47
2023/06/29 00:39:26;;;;;;;;;49.75;38.50;;;;;25.67;43.52;101132.06;4918894;28;45397;-47
2023/06/29 00:41:54;;;;;;;;;47.00;39.00;;;;;25.66;43.36;101128.59;4918567;28;45454;-47
2023/06/29 00:44:20;;;;;;;;;46.50;37.50;;;;;25.65;43.15;101126.88;4918789;28;45345;-48
2023/06/29 00:46:46;;;;;;;;;45.75;36.25;;;;;25.66;43.42;101128.59;4917355;28;45406;-46
2023/06/29 00:49:12;;;;;;;;;49.50;36.50;;;;;25.66;43.26;101125.94;4917765;28;45620;-47
2023/06/29 00:51:38;;;;;;;;;54.75;39.00;;;;;25.66;43.25;101120.63;4918816;28;46281;-49
2023/06/29 00:54:04;;;;;;;;;49.25;38.50;;;;;25.67;43.33;101121.47;4918678;28;45390;-48
2023/06/29 00:56:32;;;;;;;;;47.50;37.75;;;;;25.66;43.56;101115.31;4918751;28;45185;-45
2023/06/29 00:58:57;;;;;;;;;50.50;38.00;;;;;25.67;43.63;101110.84;4918777;28;45441;-48
2023/06/29 01:01:22;;;;;;;;;47.00;37.25;;;;;25.65;43.36;101108.31;4918419;28;45326;-50
2023/06/29 01:03:48;;;;;;;;;49.75;38.00;;;;;25.65;43.27;101100.34;4918389;28;45279;-46
2023/06/29 01:06:22;;;;;;;;;53.75;40.25;;;;;25.66;43.31;101109.13;4918524;28;45490;-48
2023/06/29 01:08:53;;;;;;;;;53.25;41.25;;;;;25.65;43.36;101105.66;4918684;28;45432;-47
2023/06/29 01:11:20;;;;;;;;;52.25;42.25;;;;;25.63;43.27;101095.13;4918341;28;46395;-45
2023/06/29 01:13:47;;;;;;;;;56.75;42.75;;;;;25.61;42.91;101097.06;4918297;28;45432;-45
2023/06/29 01:16:14;;;;;;;;;52.25;40.25;;;;;25.65;43.06;101097.69;4918564;28;45480;-46
2023/06/29 01:18:44;;;;;;;;;54.25;42.50;;;;;25.64;43.17;101103.94;4918844;28;45271;-47
2023/06/29 01:21:11;;;;;;;;;59.00;44.00;;;;;25.62;43.42;101090.81;4917260;28;47117;-47
2023/06/29 01:23:39;;;;;;;;;61.00;44.75;;;;;25.63;43.52;101092.47;4918183;28;45811;-49
2023/06/29 01:26:05;;;;;;;;;61.75;45.25;;;;;25.61;43.48;101089.09;4918216;28;45432;-50
2023/06/29 01:28:32;;;;;;;;;52.75;41.25;;;;;25.62;43.37;101096.13;4918424;28;45573;-48
2023/06/29 01:30:58;;;;;;;;;56.75;43.75;;;;;25.61;43.45;101091.75;4917899;28;46371;-51
2023/06/29 01:33:24;;;;;;;;;62.00;45.00;;;;;25.61;43.28;101089.09;4918156;28;45275;-50
2023/06/29 01:35:57;;;;;;;;;58.25;41.50;;;;;25.60;43.27;101095.38;4918275;28;45409;-47
2023/06/29 01:38:52;;;;;;;;;57.50;44.50;;;;;25.60;43.63;101092.72;4918557;28;45262;-49
2023/06/29 01:41:20;;;;;;;;;57.00;42.50;;;;;25.59;43.72;101090.16;4918120;28;45340;-49
2023/06/29 01:43:46;;;;;;;;;57.25;43.00;;;;;25.61;43.09;101096.22;4916814;28;45314;-46
2023/06/29 01:46:13;;;;;;;;;56.50;43.00;;;;;25.58;43.21;101089.31;4918391;28;45322;-49
2023/06/29 01:48:40;;;;;;;;;50.00;38.25;;;;;25.61;43.44;101091.75;4919136;28;45385;-47
2023/06/29 01:51:07;;;;;;;;;55.50;44.00;;;;;25.61;43.46;101085.59;4921213;28;46589;-48
2023/06/29 01:53:35;;;;;;;;;61.25;45.75;;;;;25.62;43.21;101090.81;4921166;28;45822;-47
2023/06/29 01:56:01;;;;;;;;;54.25;44.75;;;;;25.62;43.54;101088.16;4921268;28;45409;-47
2023/06/29 01:58:26;;;;;;;;;57.67;45.00;;;;;25.59;43.37;101082.19;4921017;28;45408;-45
2023/06/29 02:00:51;;;;;;;;;58.75;46.25;;;;;25.61;42.97;101083.81;4921019;28;45462;-47
2023/06/29 02:03:16;;;;;;;;;58.67;44.33;;;;;25.63;43.66;101081.03;4920719;28;51894;-48
2023/06/29 02:05:42;;;;;;;;;53.33;42.33;;;;;25.61;42.95;101075.84;4919958;28;45520;-44
2023/06/29 02:08:07;;;;;;;;;58.00;45.33;;;;;25.60;43.13;101076.78;4919977;28;45474;-45
2023/06/29 02:10:32;;;;;;;;;59.25;44.50;;;;;25.60;42.91;101074.13;4919445;28;46210;-44
2023/06/29 02:12:58;;;;;;;;;61.00;46.33;;;;;25.63;43.19;101075.72;4920790;28;45457;-46
2023/06/29 02:15:23;;;;;;;;;59.00;44.25;;;;;25.63;43.25;101070.41;4920931;28;45358;-49
2023/06/29 02:17:48;;;;;;;;;53.00;42.33;;;;;25.60;43.46;101068.84;4921040;28;45505;-47
2023/06/29 02:20:14;;;;;;;;;57.00;41.67;;;;;25.62;43.21;101072.22;4920809;28;48832;-47
2023/06/29 02:22:39;;;;;;;;;56.50;44.50;;;;;25.63;43.46;101073.91;4920551;28;45382;-50
2023/06/29 02:25:05;;;;;;;;;63.33;43.33;;;;;25.62;43.50;101074.03;4920212;28;55787;-45
2023/06/29 02:27:30;;;;;;;;;56.00;43.75;;;;;25.62;43.12;101064.25;4920726;28;45323;-45
2023/06/29 02:29:55;;;;;;;;;62.33;46.00;;;;;25.62;43.21;101064.25;4918622;28;63073;-48
2023/06/29 02:32:21;;;;;;;;;56.00;43.25;;;;;25.59;43.20;101061.81;4920298;28;45353;-45
2023/06/29 02:34:46;;;;;;;;;56.75;44.25;;;;;25.59;42.91;101056.53;4920987;28;45358;-48
2023/06/29 02:37:11;;;;;;;;;56.75;43.75;;;;;25.60;43.60;101062.66;4920653;28;45612;-47
2023/06/29 02:39:37;;;;;;;;;57.75;43.75;;;;;25.56;43.00;101054.09;4919891;28;59853;-45
2023/06/29 02:42:02;;;;;;;;;60.00;45.00;;;;;25.55;42.87;101051.56;4920443;28;45397;-46
2023/06/29 02:44:28;;;;;;;;;58.75;43.25;;;;;25.54;43.70;101053.34;4920428;28;45266;-47
2023/06/29 02:46:53;;;;;;;;;54.75;44.00;;;;;25.53;43.57;101049.00;4920735;28;45551;-48
2023/06/29 02:49:18;;;;;;;;;56.67;43.33;;;;;25.57;43.35;101058.44;4920100;28;57860;-46
2023/06/29 02:51:44;;;;;;;;;53.25;41.75;;;;;25.55;42.92;101057.69;4920565;28;45382;-43
2023/06/29 02:54:09;;;;;;;;;55.33;42.67;;;;;25.54;42.86;101050.69;4920225;28;45556;-46
2023/06/29 02:56:34;;;;;;;;;56.00;45.00;;;;;25.52;42.89;101047.28;4920441;28;45197;-50
2023/06/29 02:58:59;;;;;;;;;54.33;42.33;;;;;25.53;43.37;101051.66;4919954;28;57233;-44
2023/06/29 03:01:25;;;;;;;;;51.25;40.25;;;;;25.51;42.84;101053.59;4919097;28;45361;-45
2023/06/29 03:03:50;;;;;;;;;55.25;43.25;;;;;25.49;43.46;101050.19;4920327;28;45335;-47
2023/06/29 03:06:16;;;;;;;;;50.25;38.75;;;;;25.51;42.92;101050.94;4920488;28;45572;-51
2023/06/29 03:08:41;;;;;;;;;59.50;43.75;;;;;25.52;43.24;101052.59;4919548;28;53992;-48
2023/06/29 03:11:06;;;;;;;;;54.50;40.00;;;;;25.53;43.25;101051.66;4920007;28;45299;-46
2023/06/29 03:13:31;;;;;;;;;60.67;44.33;;;;;25.51;43.35;101045.63;4919722;28;51546;-51
2023/06/29 03:15:59;;;;;;;;;54.00;42.50;;;;;25.56;43.49;101048.78;4920246;28;45443;-46
2023/06/29 03:18:25;;;;;;;;;59.75;45.25;;;;;25.56;43.01;101048.78;4919779;28;46370;-46
2023/06/29 03:20:50;;;;;;;;;52.25;41.25;;;;;25.56;42.82;101050.59;4920176;28;45338;-47
2023/06/29 03:23:15;;;;;;;;;55.75;44.75;;;;;25.58;43.21;101046.00;4920395;28;45508;-49
2023/06/29 03:25:41;;;;;;;;;53.33;41.33;;;;;25.57;43.19;101042.50;4919592;28;48843;-43
2023/06/29 03:28:06;;;;;;;;;59.00;45.67;;;;;25.56;43.06;101040.81;4918928;28;63512;-48
2023/06/29 03:30:31;;;;;;;;;56.00;43.00;;;;;25.57;43.29;101041.69;4918729;28;65117;-51
2023/06/29 03:32:58;;;;;;;;;58.67;43.67;;;;;25.59;43.57;101053.88;4919667;28;45215;-46
2023/06/29 03:35:24;;;;;;;;;51.75;42.00;;;;;25.58;43.28;101052.16;4918777;28;45554;-49
2023/06/29 03:37:50;;;;;;;;;56.50;43.50;;;;;25.58;43.48;101049.50;4918646;28;45346;-47
2023/06/29 03:40:16;;;;;;;;;54.50;43.75;;;;;25.60;43.07;101046.72;4919531;28;45896;-47
2023/06/29 03:42:41;;;;;;;;;58.75;44.50;;;;;25.61;43.45;101045.78;4918281;28;45337;-48
2023/06/29 03:45:07;;;;;;;;;55.00;44.25;;;;;25.59;43.02;101048.56;4919782;28;45437;-46
2023/06/29 03:47:33;;;;;;;;;57.75;43.50;;;;;25.59;43.60;101043.25;4919155;28;46473;-46
2023/06/29 03:49:58;;;;;;;;;52.50;43.25;;;;;25.59;43.59;101043.25;4919439;28;45441;-48
2023/06/29 03:52:23;;;;;;;;;60.50;43.50;;;;;25.59;43.09;101048.56;4919361;28;45289;-45
2023/06/29 03:54:49;;;;;;;;;54.67;43.67;;;;;25.59;42.98;101045.03;4919424;28;52437;-47
2023/06/29 03:57:15;;;;;;;;;54.50;43.50;;;;;25.58;43.44;101041.56;4919252;28;46381;-45
2023/06/29 03:59:40;;;;;;;;;61.00;44.00;;;;;25.60;43.47;101050.25;4919322;28;45260;-44
2023/06/29 04:02:06;;;;;;;;;57.00;44.75;;;;;25.59;43.33;101045.91;4919272;28;45279;-50
2023/06/29 04:04:31;;;;;;;;;59.50;46.50;;;;;25.59;43.22;101027.31;4919570;28;45498;-52
2023/06/29 04:06:56;;;;;;;;;61.00;44.00;;;;;25.58;43.49;101036.25;4919038;28;46221;-49
2023/06/29 04:09:22;;;;;;;;;57.25;45.50;;;;;25.59;43.41;101037.94;4919363;28;45261;-47
2023/06/29 04:11:47;;;;;;;;;62.50;44.75;;;;;25.60;43.73;101039.63;4919096;28;45560;-47
2023/06/29 04:14:12;;;;;;;;;54.00;43.33;;;;;25.60;43.51;101034.34;4918660;28;58965;-48
2023/06/29 04:16:38;;;;;;;;;58.00;42.25;;;;;25.60;42.92;101031.69;4918853;28;45898;-45
2023/06/29 04:19:03;;;;;;;;;58.00;44.50;;;;;25.61;43.16;101024.53;4918949;28;45236;-48
2023/06/29 04:21:28;;;;;;;;;55.33;38.33;;;;;25.60;43.79;101023.72;4918336;28;59745;-49
2023/06/29 04:23:54;;;;;;;;;56.75;44.25;;;;;25.61;44.01;101027.19;4919541;28;45799;-45
2023/06/29 04:26:21;;;;;;;;;60.75;43.75;;;;;25.60;43.28;101021.06;4918887;28;46712;-47
2023/06/29 04:28:47;;;;;;;;;47.00;36.25;;;;;25.62;43.21;101018.28;4918877;28;45362;-51
2023/06/29 04:31:12;;;;;;;;;60.33;44.00;;;;;25.61;43.96;101022.75;4918920;28;45365;-51
2023/06/29 04:33:38;;;;;;;;;55.33;41.33;;;;;25.61;43.32;101020.09;4918854;28;45502;-48
2023/06/29 04:36:03;;;;;;;;;56.00;44.50;;;;;25.62;43.72;101018.28;4918715;28;46338;-51
2023/06/29 04:38:31;;;;;;;;;53.00;40.75;;;;;25.60;43.47;101013.09;4918535;28;45431;-52
2023/06/29 04:41:03;;;;;;;;;60.00;43.25;;;;;25.62;43.91;101016.50;4918906;28;45245;-50
2023/06/29 04:43:32;;;;;;;;;51.50;43.25;;;;;25.62;43.57;101015.63;4918830;28;45384;-49
2023/06/29 04:46:00;;;;;;;;;52.50;40.00;;;;;25.62;43.91;101018.28;4918616;28;46496;-45
2023/06/29 04:48:32;;;;;;;;;58.00;44.50;;;;;25.63;43.87;101023.47;4918779;28;45900;-51
2023/06/29 04:51:05;;;;;;;;;58.50;42.25;;;;;25.60;44.27;101015.75;4918787;28;45362;-52
2023/06/29 04:53:32;;;;;;;;;54.75;41.00;;;;;25.62;44.08;101021.81;4917606;28;45349;-47
2023/06/29 04:55:58;;;;;;;;;51.00;40.00;;;;;25.61;43.96;101024.53;4918519;28;46099;-48
2023/06/29 04:58:23;;;;;;;;;54.25;41.25;;;;;25.63;44.40;101025.28;4918805;28;45269;-50
2023/06/29 05:00:48;;;;;;;;;53.50;42.25;;;;;25.61;44.26;101020.09;4918628;28;45280;-47
2023/06/29 05:03:14;;;;;;;;;51.50;41.75;;;;;25.64;43.96;101024.31;4918684;28;45548;-51
2023/06/29 05:05:39;;;;;;;;;49.33;39.67;;;;;25.63;44.83;101027.94;4917576;28;65142;-54
2023/06/29 05:08:06;;;;;;;;;46.25;38.00;;;;;25.63;44.29;101031.44;4918343;28;45220;-50
2023/06/29 05:10:31;;;;;;;;;46.50;35.75;;;;;25.63;44.89;101030.59;4918560;28;45383;-47
2023/06/29 05:12:56;;;;;;;;;50.25;37.25;;;;;25.63;44.65;101031.44;4917590;28;45511;-49
2023/06/29 05:15:22;;;;;;;;;52.25;39.25;;;;;25.61;44.78;101025.41;4918263;28;46150;-49
2023/06/29 05:17:47;;;;;;;;;52.00;38.50;;;;;25.61;44.96;101024.53;4918234;28;45923;-54
2023/06/29 05:20:14;;;;;;;;;43.00;34.00;;;;;25.62;45.20;101027.09;4918026;28;47066;-53
2023/06/29 05:22:39;;;;;;;;;49.00;39.25;;;;;25.65;44.86;101030.47;4918439;28;45345;-55
2023/06/29 05:25:04;;;;;;;;;43.75;36.00;;;;;25.62;45.43;101027.09;4921003;28;46666;-53
2023/06/29 05:27:30;;;;;;;;;49.25;35.75;;;;;25.65;45.46;101030.47;4921393;28;45326;-52
2023/06/29 05:29:55;;;;;;;;;47.50;35.00;;;;;25.66;45.47;101037.47;4921668;28;49422;-52
2023/06/29 05:32:20;;;;;;;;;44.25;33.75;;;;;25.66;45.15;101032.16;4921556;28;45622;-53
2023/06/29 05:34:46;;;;;;;;;46.00;35.33;;;;;25.63;45.05;101022.63;4921248;28;50123;-50
2023/06/29 05:37:11;;;;;;;;;47.00;34.25;;;;;25.66;44.90;101032.16;4921528;28;45344;-50
2023/06/29 05:39:36;;;;;;;;;47.75;33.50;;;;;25.66;44.89;101032.16;4921470;28;45271;-50
2023/06/29 05:42:02;;;;;;;;;39.33;30.67;;;;;25.66;44.90;101035.69;4920913;28;55985;-51
2023/06/29 05:44:27;;;;;;;;;37.25;32.25;;;;;25.67;45.35;101033.88;4920162;28;48119;-50
2023/06/29 05:46:52;;;;;;;;;38.25;33.00;;;;;25.68;45.78;101035.56;4920919;28;47766;-49
2023/06/29 05:49:18;;;;;;;;;38.75;32.00;;;;;25.66;45.35;101024.19;4921292;28;45402;-46
2023/06/29 05:51:43;;;;;;;;;45.00;34.50;;;;;25.67;45.70;101028.56;4921246;28;45424;-48
2023/06/29 05:54:08;;;;;;;;;40.25;32.50;;;;;25.67;45.70;101034.72;4921041;28;46353;-47
2023/06/29 05:56:34;;;;;;;;;41.25;33.50;;;;;25.67;45.71;101032.06;4920995;28;45227;-47
2023/06/29 05:58:59;;;;;;;;;30.25;27.50;;;;;25.65;46.11;101030.47;4921519;28;45334;-48
2023/06/29 06:01:25;;;;;;;;;41.50;31.75;;;;;25.66;45.77;101027.72;4921651;28;45350;-48
2023/06/29 06:03:50;;;;;;;;;40.25;30.75;;;;;25.67;46.09;101031.22;4920816;28;46031;-52
2023/06/29 06:06:15;;;;;;;;;34.25;29.00;;;;;25.64;46.20;101024.31;4920588;28;48774;-47
2023/06/29 06:08:41;;;;;;;;;34.50;31.25;;;;;25.67;45.67;101023.25;4921161;28;45439;-53
2023/06/29 06:11:06;;;;;;;;;35.25;29.75;;;;;25.67;45.46;101023.25;4919959;28;45517;-50
2023/06/29 06:13:32;;;;;;;;;34.00;30.25;;;;;25.67;46.05;101028.56;4920758;28;45374;-49
2023/06/29 06:15:57;;;;;;;;;33.75;29.00;;;;;25.67;45.34;101033.88;4921007;28;45467;-49
2023/06/29 06:18:22;;;;;;;;;35.50;28.75;;;;;25.68;45.60;101019.63;4920932;28;45475;-49
2023/06/29 06:20:48;;;;;;;;;34.50;30.00;;;;;25.68;45.63;101027.59;4920993;28;45362;-50
2023/06/29 06:23:13;;;;;;;;;32.00;26.50;;;;;25.68;46.13;101024.94;4920582;28;46301;-52
2023/06/29 06:25:38;;;;;;;;;33.25;29.00;;;;;25.69;45.61;101022.16;4920567;28;45370;-51
2023/06/29 06:28:04;;;;;;;;;34.50;30.25;;;;;25.69;46.35;101021.31;4919693;28;45396;-51
2023/06/29 06:30:29;;;;;;;;;31.50;26.50;;;;;25.67;46.14;101024.09;4921077;28;45556;-50
2023/06/29 06:32:54;;;;;;;;;33.25;28.50;;;;;25.67;46.23;101017.94;4920424;28;46266;-49
2023/06/29 06:35:20;;;;;;;;;30.00;26.50;;;;;25.68;46.14;101024.94;4920531;28;45465;-49
2023/06/29 06:37:45;;;;;;;;;34.75;30.25;;;;;25.70;45.89;101033.63;4920514;28;45312;-48
2023/06/29 06:40:11;;;;;;;;;28.75;22.25;;;;;25.69;45.95;101027.47;4920721;28;45365;-49
2023/06/29 06:42:38;;;;;;;;;36.50;29.75;;;;;25.67;46.13;101024.09;4920536;28;46129;-48
2023/06/29 06:45:04;;;;;;;;;36.25;28.50;;;;;25.68;46.27;101019.63;4920481;28;45342;-48
2023/06/29 06:47:31;;;;;;;;;27.50;22.00;;;;;25.70;46.45;101026.50;4920405;28;45342;-52
2023/06/29 06:49:57;;;;;;;;;32.50;28.50;;;;;25.69;46.53;101021.31;4920481;28;45416;-47
2023/06/29 06:52:22;;;;;;;;;23.25;21.50;;;;;25.68;46.02;101024.94;4920194;28;45413;-46
2023/06/29 06:54:47;;;;;;;;;33.75;26.75;;;;;25.69;46.42;101022.16;4920351;28;45798;-49
2023/06/29 06:57:13;;;;;;;;;32.67;28.00;;;;;25.69;46.47;101022.16;4920021;28;49812;-50
2023/06/29 06:59:38;;;;;;;;;34.25;25.25;;;;;25.70;46.11;101020.38;4920465;28;45310;-54
2023/06/29 07:02:05;;;;;;;;;28.00;21.50;;;;;25.70;46.00;101025.69;4919995;28;45573;-46
2023/06/29 07:04:31;;;;;;;;;32.00;27.75;;;;;25.69;46.72;101024.81;4920435;28;45812;-49
2023/06/29 07:06:56;;;;;;;;;30.00;26.75;;;;;25.69;46.46;101016.03;4920051;28;45316;-49
2023/06/29 07:09:21;;;;;;;;;29.00;25.00;;;;;25.71;46.49;101024.72;4920104;28;45216;-52
2023/06/29 07:11:47;;;;;;;;;37.00;28.25;;;;;25.72;46.55;101029.06;4919526;28;45213;-50
2023/06/29 07:14:12;;;;;;;;;26.00;24.50;;;;;25.71;46.52;101024.72;4919527;28;48991;-52
2023/06/29 07:16:37;;;;;;;;;33.75;27.00;;;;;25.70;46.44;101023.03;4919978;28;45303;-53
2023/06/29 07:19:12;;;;;;;;;32.50;24.00;;;;;25.71;46.65;101022.06;4920533;28;45547;-53
2023/06/29 07:21:37;;;;;;;;;36.25;31.25;;;;;25.71;46.95;101024.72;4919078;28;46463;-55
2023/06/29 07:24:03;;;;;;;;;32.50;23.50;;;;;25.69;46.54;101018.66;4919964;28;50184;-55
2023/06/29 07:26:28;;;;;;;;;26.25;24.25;;;;;25.71;46.29;101016.75;4919809;28;45285;-53
2023/06/29 07:28:54;;;;;;;;;30.25;24.50;;;;;25.71;46.63;101019.41;4920054;28;45227;-54
2023/06/29 07:31:27;;;;;;;;;23.75;20.50;;;;;25.71;46.32;101024.72;4919358;28;46053;-54
2023/06/29 07:33:54;;;;;;;;;33.50;27.00;;;;;25.69;46.79;101022.16;4919625;28;45782;-51
2023/06/29 07:36:20;;;;;;;;;35.50;26.25;;;;;25.69;46.52;101013.38;4919653;28;45814;-53
2023/06/29 07:38:46;;;;;;;;;30.00;25.75;;;;;25.72;46.68;101018.44;4919777;28;45448;-48
2023/06/29 07:41:11;;;;;;;;;30.25;25.00;;;;;25.71;46.80;101014.09;4919422;28;46035;-51
2023/06/29 07:43:36;;;;;;;;;29.25;23.00;;;;;25.72;46.80;101011.31;4919002;28;53550;-48
2023/06/29 07:46:02;;;;;;;;;37.50;26.00;;;;;25.72;46.81;101015.78;4919203;28;45412;-45
2023/06/29 07:48:28;;;;;;;;;28.50;24.00;;;;;25.71;46.70;101014.94;4919529;28;45409;-51
2023/06/29 07:50:54;;;;;;;;;28.00;25.50;;;;;25.69;46.71;101008.88;4919274;28;45521;-53
2023/06/29 07:53:19;;;;;;;;;36.50;28.50;;;;;25.72;46.80;101010.50;4919328;28;45897;-49
2023/06/29 07:55:44;;;;;;;;;31.25;26.25;;;;;25.71;46.94;101012.28;4919561;28;45363;-50
2023/06/29 07:58:10;;;;;;;;;29.75;23.00;;;;;25.69;47.02;101000.94;4917913;28;46174;-50
2023/06/29 08:00:35;;;;;;;;;35.25;28.25;;;;;25.71;47.01;101011.44;4919400;28;46851;-48
2023/06/29 08:03:01;;;;;;;;;29.25;24.00;;;;;25.72;46.95;101010.50;4919210;28;45228;-48
2023/06/29 08:05:26;;;;;;;;;33.25;28.00;;;;;25.71;46.58;101011.44;4917641;28;50268;-47
2023/06/29 08:07:51;;;;;;;;;28.25;24.75;;;;;25.72;47.16;101007.84;4918125;28;45320;-48
2023/06/29 08:10:17;;;;;;;;;27.75;26.50;;;;;25.71;46.84;100998.19;4919211;28;46572;-49
2023/06/29 08:12:42;;;;;;;;;29.50;28.00;;;;;25.73;47.14;101001.56;4919353;28;45351;-51
2023/06/29 08:15:09;;;;;;;;;33.75;26.00;;;;;25.73;47.33;100998.91;4919114;28;45203;-49
2023/06/29 08:17:34;;;;;;;;;29.75;23.25;;;;;25.73;46.87;100991.78;4919679;28;45581;-51
2023/06/29 08:20:00;;;;;;;;;23.75;23.75;;;;;25.74;46.96;100993.47;4919127;28;46533;-50
2023/06/29 08:22:25;;;;;;;;;27.75;25.25;;;;;25.72;47.14;100991.91;4918934;28;45229;-52
2023/06/29 08:24:51;;;;;;;;;27.75;22.25;;;;;25.75;46.80;100995.16;4919156;28;45422;-47
2023/06/29 08:27:16;;;;;;;;;30.75;27.00;;;;;25.75;46.73;101005.78;4919049;28;45428;-53
2023/06/29 08:29:42;;;;;;;;;32.75;24.25;;;;;25.76;47.26;100996.00;4918729;28;45520;-51
2023/06/29 08:32:09;;;;;;;;;33.25;26.50;;;;;25.77;46.87;100997.69;4918895;28;45441;-48
2023/06/29 08:34:34;;;;;;;;;29.00;26.25;;;;;25.77;46.98;101003.00;4919320;28;45492;-48
